sensor_id;sensor_type;location;lat;lon;timestamp;P1;durP1;ratioP1;P2;durP2;ratioP2
24159;SDS011;62385;41.594;23.808;2023-10-13T00:01:55;0.68;;;0.65;;
24159;SDS011;62385;41.594;23.808;2023-10-13T00:04:24;1.33;;;0.73;;
24159;SDS011;62385;41.594;23.808;2023-10-13T00:06:56;1.85;;;1.27;;
24159;SDS011;62385;41.594;23.808;2023-10-13T00:09:22;1.17;;;0.82;;
24159;SDS011;62385;41.594;23.808;2023-10-13T00:11:57;1.00;;;0.88;;
24159;SDS011;62385;41.594;23.808;2023-10-13T00:14:24;1.40;;;1.10;;
24159;SDS011;62385;41.594;23.808;2023-10-13T00:17:05;1.10;;;0.77;;
24159;SDS011;62385;41.594;23.808;2023-10-13T00:19:41;0.73;;;0.73;;
24159;SDS011;62385;41.594;23.808;2023-10-13T00:22:11;2.70;;;0.82;;
24159;SDS011;62385;41.594;23.808;2023-10-13T00:24:38;2.33;;;0.70;;
24159;SDS011;62385;41.594;23.808;2023-10-13T00:27:19;1.27;;;0.50;;
24159;SDS011;62385;41.594;23.808;2023-10-13T00:29:57;2.30;;;0.88;;
24159;SDS011;62385;41.594;23.808;2023-10-13T00:32:51;3.33;;;1.17;;
24159;SDS011;62385;41.594;23.808;2023-10-13T00:35:24;2.90;;;1.58;;
24159;SDS011;62385;41.594;23.808;2023-10-13T00:37:57;1.45;;;0.80;;
24159;SDS011;62385;41.594;23.808;2023-10-13T00:40:29;1.42;;;0.60;;
24159;SDS011;62385;41.594;23.808;2023-10-13T00:42:56;1.48;;;0.65;;
24159;SDS011;62385;41.594;23.808;2023-10-13T00:45:43;1.60;;;1.05;;
24159;SDS011;62385;41.594;23.808;2023-10-13T00:48:13;1.10;;;0.82;;
24159;SDS011;62385;41.594;23.808;2023-10-13T00:50:39;1.00;;;0.90;;
24159;SDS011;62385;41.594;23.808;2023-10-13T00:53:06;1.33;;;0.88;;
24159;SDS011;62385;41.594;23.808;2023-10-13T00:55:32;0.93;;;0.65;;
24159;SDS011;62385;41.594;23.808;2023-10-13T00:57:59;0.68;;;0.68;;
24159;SDS011;62385;41.594;23.808;2023-10-13T01:00:31;0.70;;;0.70;;
24159;SDS011;62385;41.594;23.808;2023-10-13T01:02:58;1.67;;;1.10;;
24159;SDS011;62385;41.594;23.808;2023-10-13T01:05:31;1.10;;;0.80;;
24159;SDS011;62385;41.594;23.808;2023-10-13T01:08:02;1.52;;;0.85;;
24159;SDS011;62385;41.594;23.808;2023-10-13T01:10:28;1.70;;;1.05;;
24159;SDS011;62385;41.594;23.808;2023-10-13T01:12:57;1.33;;;0.65;;
24159;SDS011;62385;41.594;23.808;2023-10-13T01:15:24;2.30;;;1.00;;
24159;SDS011;62385;41.594;23.808;2023-10-13T01:18:05;0.52;;;0.40;;
24159;SDS011;62385;41.594;23.808;2023-10-13T01:20:37;0.95;;;0.75;;
24159;SDS011;62385;41.594;23.808;2023-10-13T01:23:11;1.70;;;0.88;;
24159;SDS011;62385;41.594;23.808;2023-10-13T01:25:43;11.15;;;1.50;;
24159;SDS011;62385;41.594;23.808;2023-10-13T01:28:10;2.03;;;1.13;;
24159;SDS011;62385;41.594;23.808;2023-10-13T01:30:41;1.30;;;0.98;;
24159;SDS011;62385;41.594;23.808;2023-10-13T01:33:08;1.15;;;0.77;;
24159;SDS011;62385;41.594;23.808;2023-10-13T01:35:36;1.02;;;0.93;;
24159;SDS011;62385;41.594;23.808;2023-10-13T01:38:08;1.10;;;0.63;;
24159;SDS011;62385;41.594;23.808;2023-10-13T01:40:34;0.80;;;0.73;;
24159;SDS011;62385;41.594;23.808;2023-10-13T01:43:01;2.30;;;1.20;;
24159;SDS011;62385;41.594;23.808;2023-10-13T01:45:29;0.93;;;0.68;;
24159;SDS011;62385;41.594;23.808;2023-10-13T01:47:56;0.65;;;0.63;;
24159;SDS011;62385;41.594;23.808;2023-10-13T01:50:22;2.22;;;1.45;;
24159;SDS011;62385;41.594;23.808;2023-10-13T01:52:54;2.58;;;0.90;;
24159;SDS011;62385;41.594;23.808;2023-10-13T01:55:41;1.65;;;0.77;;
24159;SDS011;62385;41.594;23.808;2023-10-13T01:58:13;1.85;;;0.80;;
24159;SDS011;62385;41.594;23.808;2023-10-13T02:00:43;2.10;;;1.30;;
24159;SDS011;62385;41.594;23.808;2023-10-13T02:03:10;1.75;;;0.93;;
24159;SDS011;62385;41.594;23.808;2023-10-13T02:05:42;1.20;;;1.02;;
24159;SDS011;62385;41.594;23.808;2023-10-13T02:08:15;2.92;;;0.70;;
24159;SDS011;62385;41.594;23.808;2023-10-13T02:10:51;0.47;;;0.32;;
24159;SDS011;62385;41.594;23.808;2023-10-13T02:13:22;1.17;;;1.05;;
24159;SDS011;62385;41.594;23.808;2023-10-13T02:15:49;1.77;;;1.55;;
24159;SDS011;62385;41.594;23.808;2023-10-13T02:18:19;2.05;;;1.85;;
24159;SDS011;62385;41.594;23.808;2023-10-13T02:21:06;0.98;;;0.85;;
24159;SDS011;62385;41.594;23.808;2023-10-13T02:23:38;2.30;;;1.20;;
24159;SDS011;62385;41.594;23.808;2023-10-13T02:26:25;1.50;;;1.05;;
24159;SDS011;62385;41.594;23.808;2023-10-13T02:28:58;1.58;;;0.65;;
24159;SDS011;62385;41.594;23.808;2023-10-13T02:31:29;0.98;;;0.93;;
24159;SDS011;62385;41.594;23.808;2023-10-13T02:33:55;2.45;;;0.80;;
24159;SDS011;62385;41.594;23.808;2023-10-13T02:36:21;1.75;;;1.02;;
24159;SDS011;62385;41.594;23.808;2023-10-13T02:39:04;2.30;;;0.98;;
24159;SDS011;62385;41.594;23.808;2023-10-13T02:41:36;0.90;;;0.80;;
24159;SDS011;62385;41.594;23.808;2023-10-13T02:44:05;1.00;;;0.73;;
24159;SDS011;62385;41.594;23.808;2023-10-13T02:46:33;1.27;;;0.90;;
24159;SDS011;62385;41.594;23.808;2023-10-13T02:49:05;0.85;;;0.85;;
24159;SDS011;62385;41.594;23.808;2023-10-13T02:51:38;1.17;;;1.08;;
24159;SDS011;62385;41.594;23.808;2023-10-13T02:54:07;1.92;;;1.00;;
24159;SDS011;62385;41.594;23.808;2023-10-13T02:56:38;0.82;;;0.70;;
24159;SDS011;62385;41.594;23.808;2023-10-13T02:59:22;0.75;;;0.70;;
24159;SDS011;62385;41.594;23.808;2023-10-13T03:02:02;1.38;;;1.20;;
24159;SDS011;62385;41.594;23.808;2023-10-13T03:04:48;2.25;;;1.15;;
24159;SDS011;62385;41.594;23.808;2023-10-13T03:07:13;1.92;;;1.35;;
24159;SDS011;62385;41.594;23.808;2023-10-13T03:09:51;0.63;;;0.63;;
24159;SDS011;62385;41.594;23.808;2023-10-13T03:12:17;1.30;;;1.02;;
24159;SDS011;62385;41.594;23.808;2023-10-13T03:14:44;1.15;;;0.95;;
24159;SDS011;62385;41.594;23.808;2023-10-13T03:17:13;1.45;;;1.02;;
24159;SDS011;62385;41.594;23.808;2023-10-13T03:19:44;1.30;;;0.75;;
24159;SDS011;62385;41.594;23.808;2023-10-13T03:22:17;0.98;;;0.90;;
24159;SDS011;62385;41.594;23.808;2023-10-13T03:24:55;1.48;;;1.05;;
24159;SDS011;62385;41.594;23.808;2023-10-13T03:27:26;1.80;;;1.17;;
24159;SDS011;62385;41.594;23.808;2023-10-13T03:30:04;0.65;;;0.47;;
24159;SDS011;62385;41.594;23.808;2023-10-13T03:32:36;1.17;;;0.88;;
24159;SDS011;62385;41.594;23.808;2023-10-13T03:35:09;0.60;;;0.50;;
24159;SDS011;62385;41.594;23.808;2023-10-13T03:37:54;1.08;;;0.90;;
24159;SDS011;62385;41.594;23.808;2023-10-13T03:40:21;0.57;;;0.57;;
24159;SDS011;62385;41.594;23.808;2023-10-13T03:42:51;0.70;;;0.65;;
24159;SDS011;62385;41.594;23.808;2023-10-13T03:45:29;4.18;;;1.10;;
24159;SDS011;62385;41.594;23.808;2023-10-13T03:48:08;8.20;;;1.30;;
24159;SDS011;62385;41.594;23.808;2023-10-13T03:50:35;4.07;;;0.75;;
24159;SDS011;62385;41.594;23.808;2023-10-13T03:53:02;0.45;;;0.45;;
24159;SDS011;62385;41.594;23.808;2023-10-13T03:55:31;2.30;;;0.63;;
24159;SDS011;62385;41.594;23.808;2023-10-13T03:58:00;2.10;;;1.90;;
24159;SDS011;62385;41.594;23.808;2023-10-13T04:00:26;1.63;;;1.00;;
24159;SDS011;62385;41.594;23.808;2023-10-13T04:02:53;2.13;;;0.90;;
24159;SDS011;62385;41.594;23.808;2023-10-13T04:05:33;0.95;;;0.75;;
24159;SDS011;62385;41.594;23.808;2023-10-13T04:08:11;1.38;;;1.02;;
24159;SDS011;62385;41.594;23.808;2023-10-13T04:10:57;0.80;;;0.70;;
24159;SDS011;62385;41.594;23.808;2023-10-13T04:13:23;0.73;;;0.70;;
24159;SDS011;62385;41.594;23.808;2023-10-13T04:16:08;0.45;;;0.32;;
24159;SDS011;62385;41.594;23.808;2023-10-13T04:19:01;0.93;;;0.68;;
24159;SDS011;62385;41.594;23.808;2023-10-13T04:21:27;1.45;;;1.20;;
24159;SDS011;62385;41.594;23.808;2023-10-13T04:24:05;1.27;;;1.00;;
24159;SDS011;62385;41.594;23.808;2023-10-13T04:26:50;0.60;;;0.60;;
24159;SDS011;62385;41.594;23.808;2023-10-13T04:29:47;1.23;;;1.05;;
24159;SDS011;62385;41.594;23.808;2023-10-13T04:32:13;0.70;;;0.63;;
24159;SDS011;62385;41.594;23.808;2023-10-13T04:34:40;1.48;;;0.70;;
24159;SDS011;62385;41.594;23.808;2023-10-13T04:37:14;2.65;;;1.38;;
24159;SDS011;62385;41.594;23.808;2023-10-13T04:39:56;3.05;;;2.20;;
24159;SDS011;62385;41.594;23.808;2023-10-13T04:42:25;1.00;;;0.90;;
24159;SDS011;62385;41.594;23.808;2023-10-13T04:45:09;0.93;;;0.75;;
24159;SDS011;62385;41.594;23.808;2023-10-13T04:47:54;1.60;;;1.17;;
24159;SDS011;62385;41.594;23.808;2023-10-13T04:50:24;1.77;;;1.13;;
24159;SDS011;62385;41.594;23.808;2023-10-13T04:53:00;0.80;;;0.65;;
24159;SDS011;62385;41.594;23.808;2023-10-13T04:55:38;4.05;;;1.27;;
24159;SDS011;62385;41.594;23.808;2023-10-13T04:58:25;1.10;;;0.70;;
24159;SDS011;62385;41.594;23.808;2023-10-13T05:00:59;2.47;;;1.45;;
24159;SDS011;62385;41.594;23.808;2023-10-13T05:03:43;3.88;;;1.25;;
24159;SDS011;62385;41.594;23.808;2023-10-13T05:06:27;1.63;;;1.48;;
24159;SDS011;62385;41.594;23.808;2023-10-13T05:09:14;1.77;;;1.15;;
24159;SDS011;62385;41.594;23.808;2023-10-13T05:11:58;1.55;;;1.38;;
24159;SDS011;62385;41.594;23.808;2023-10-13T05:14:42;1.02;;;0.52;;
24159;SDS011;62385;41.594;23.808;2023-10-13T05:17:27;1.08;;;0.88;;
24159;SDS011;62385;41.594;23.808;2023-10-13T05:20:11;4.22;;;2.45;;
24159;SDS011;62385;41.594;23.808;2023-10-13T05:22:55;1.88;;;1.67;;
24159;SDS011;62385;41.594;23.808;2023-10-13T05:25:39;3.83;;;2.50;;
24159;SDS011;62385;41.594;23.808;2023-10-13T05:28:23;1.23;;;0.90;;
24159;SDS011;62385;41.594;23.808;2023-10-13T05:31:08;1.33;;;0.93;;
24159;SDS011;62385;41.594;23.808;2023-10-13T05:33:53;1.50;;;1.27;;
24159;SDS011;62385;41.594;23.808;2023-10-13T05:36:38;1.95;;;1.17;;
24159;SDS011;62385;41.594;23.808;2023-10-13T05:39:23;1.70;;;1.30;;
24159;SDS011;62385;41.594;23.808;2023-10-13T05:42:07;1.73;;;1.60;;
24159;SDS011;62385;41.594;23.808;2023-10-13T05:44:51;5.72;;;4.55;;
24159;SDS011;62385;41.594;23.808;2023-10-13T05:47:35;8.63;;;4.95;;
24159;SDS011;62385;41.594;23.808;2023-10-13T05:50:04;5.50;;;3.85;;
24159;SDS011;62385;41.594;23.808;2023-10-13T05:52:39;5.00;;;3.53;;
24159;SDS011;62385;41.594;23.808;2023-10-13T05:55:27;4.43;;;2.83;;
24159;SDS011;62385;41.594;23.808;2023-10-13T05:58:32;3.95;;;2.83;;
24159;SDS011;62385;41.594;23.808;2023-10-13T06:01:16;3.88;;;2.88;;
24159;SDS011;62385;41.594;23.808;2023-10-13T06:04:01;3.55;;;2.40;;
24159;SDS011;62385;41.594;23.808;2023-10-13T06:06:46;4.68;;;2.60;;
24159;SDS011;62385;41.594;23.808;2023-10-13T06:09:30;7.00;;;3.58;;
24159;SDS011;62385;41.594;23.808;2023-10-13T06:12:14;3.55;;;2.53;;
24159;SDS011;62385;41.594;23.808;2023-10-13T06:14:58;1.90;;;1.75;;
24159;SDS011;62385;41.594;23.808;2023-10-13T06:17:42;1.65;;;1.33;;
24159;SDS011;62385;41.594;23.808;2023-10-13T06:20:26;9.93;;;2.70;;
24159;SDS011;62385;41.594;23.808;2023-10-13T06:23:10;2.42;;;1.45;;
24159;SDS011;62385;41.594;23.808;2023-10-13T06:25:55;1.13;;;0.93;;
24159;SDS011;62385;41.594;23.808;2023-10-13T06:28:39;2.28;;;2.08;;
24159;SDS011;62385;41.594;23.808;2023-10-13T06:31:11;2.53;;;2.28;;
24159;SDS011;62385;41.594;23.808;2023-10-13T06:33:47;5.82;;;2.75;;
24159;SDS011;62385;41.594;23.808;2023-10-13T06:36:13;2.88;;;2.45;;
24159;SDS011;62385;41.594;23.808;2023-10-13T06:38:39;2.88;;;1.77;;
24159;SDS011;62385;41.594;23.808;2023-10-13T06:41:05;4.70;;;1.75;;
24159;SDS011;62385;41.594;23.808;2023-10-13T06:43:35;2.88;;;2.03;;
24159;SDS011;62385;41.594;23.808;2023-10-13T06:46:11;6.57;;;2.45;;
24159;SDS011;62385;41.594;23.808;2023-10-13T06:48:40;1.50;;;1.35;;
24159;SDS011;62385;41.594;23.808;2023-10-13T06:51:07;5.43;;;1.80;;
24159;SDS011;62385;41.594;23.808;2023-10-13T06:53:48;1.52;;;1.17;;
24159;SDS011;62385;41.594;23.808;2023-10-13T06:56:14;2.22;;;1.65;;
24159;SDS011;62385;41.594;23.808;2023-10-13T06:59:00;1.90;;;1.52;;
24159;SDS011;62385;41.594;23.808;2023-10-13T07:01:29;11.63;;;1.30;;
24159;SDS011;62385;41.594;23.808;2023-10-13T07:03:57;1.30;;;0.90;;
24159;SDS011;62385;41.594;23.808;2023-10-13T07:06:26;3.35;;;1.63;;
24159;SDS011;62385;41.594;23.808;2023-10-13T07:08:53;1.85;;;1.50;;
24159;SDS011;62385;41.594;23.808;2023-10-13T07:11:27;3.20;;;1.48;;
24159;SDS011;62385;41.594;23.808;2023-10-13T07:14:02;2.42;;;1.95;;
24159;SDS011;62385;41.594;23.808;2023-10-13T07:16:57;1.20;;;1.05;;
24159;SDS011;62385;41.594;23.808;2023-10-13T07:19:26;1.30;;;1.20;;
24159;SDS011;62385;41.594;23.808;2023-10-13T07:21:59;2.63;;;1.10;;
24159;SDS011;62385;41.594;23.808;2023-10-13T07:24:43;1.45;;;1.15;;
24159;SDS011;62385;41.594;23.808;2023-10-13T07:27:08;3.03;;;1.52;;
24159;SDS011;62385;41.594;23.808;2023-10-13T07:29:35;2.47;;;1.58;;
24159;SDS011;62385;41.594;23.808;2023-10-13T07:32:01;2.67;;;1.30;;
24159;SDS011;62385;41.594;23.808;2023-10-13T07:34:35;3.28;;;1.38;;
24159;SDS011;62385;41.594;23.808;2023-10-13T07:37:01;5.38;;;1.52;;
24159;SDS011;62385;41.594;23.808;2023-10-13T07:39:29;2.70;;;1.75;;
24159;SDS011;62385;41.594;23.808;2023-10-13T07:42:05;3.58;;;1.27;;
24159;SDS011;62385;41.594;23.808;2023-10-13T07:44:34;1.52;;;1.13;;
24159;SDS011;62385;41.594;23.808;2023-10-13T07:47:02;9.50;;;2.85;;
24159;SDS011;62385;41.594;23.808;2023-10-13T07:49:33;2.83;;;1.48;;
24159;SDS011;62385;41.594;23.808;2023-10-13T07:52:02;10.98;;;5.55;;
24159;SDS011;62385;41.594;23.808;2023-10-13T07:54:45;5.82;;;2.33;;
24159;SDS011;62385;41.594;23.808;2023-10-13T07:57:29;28.90;;;13.13;;
24159;SDS011;62385;41.594;23.808;2023-10-13T07:59:55;7.90;;;4.70;;
24159;SDS011;62385;41.594;23.808;2023-10-13T08:02:41;6.32;;;2.65;;
24159;SDS011;62385;41.594;23.808;2023-10-13T08:05:14;26.23;;;10.07;;
24159;SDS011;62385;41.594;23.808;2023-10-13T08:07:50;21.85;;;10.00;;
24159;SDS011;62385;41.594;23.808;2023-10-13T08:10:18;10.05;;;5.35;;
24159;SDS011;62385;41.594;23.808;2023-10-13T08:12:50;21.42;;;5.07;;
24159;SDS011;62385;41.594;23.808;2023-10-13T08:15:19;9.38;;;3.17;;
24159;SDS011;62385;41.594;23.808;2023-10-13T08:17:57;4.68;;;1.83;;
24159;SDS011;62385;41.594;23.808;2023-10-13T08:20:28;2.15;;;0.98;;
24159;SDS011;62385;41.594;23.808;2023-10-13T08:22:55;3.75;;;2.55;;
24159;SDS011;62385;41.594;23.808;2023-10-13T08:25:39;2.08;;;1.17;;
24159;SDS011;62385;41.594;23.808;2023-10-13T08:28:23;1.58;;;1.08;;
24159;SDS011;62385;41.594;23.808;2023-10-13T08:31:05;1.17;;;0.82;;
24159;SDS011;62385;41.594;23.808;2023-10-13T08:33:48;1.15;;;1.05;;
24159;SDS011;62385;41.594;23.808;2023-10-13T08:36:14;3.60;;;1.40;;
24159;SDS011;62385;41.594;23.808;2023-10-13T08:38:56;2.45;;;1.33;;
24159;SDS011;62385;41.594;23.808;2023-10-13T08:41:22;2.20;;;1.63;;
24159;SDS011;62385;41.594;23.808;2023-10-13T08:43:49;2.22;;;1.27;;
24159;SDS011;62385;41.594;23.808;2023-10-13T08:46:16;2.30;;;1.10;;
24159;SDS011;62385;41.594;23.808;2023-10-13T08:48:55;2.63;;;1.75;;
24159;SDS011;62385;41.594;23.808;2023-10-13T08:51:54;8.00;;;1.20;;
24159;SDS011;62385;41.594;23.808;2023-10-13T08:54:32;1.45;;;1.20;;
24159;SDS011;62385;41.594;23.808;2023-10-13T08:57:04;1.88;;;1.65;;
24159;SDS011;62385;41.594;23.808;2023-10-13T08:59:52;2.13;;;1.05;;
24159;SDS011;62385;41.594;23.808;2023-10-13T09:02:21;2.45;;;1.45;;
24159;SDS011;62385;41.594;23.808;2023-10-13T09:05:11;3.25;;;1.42;;
24159;SDS011;62385;41.594;23.808;2023-10-13T09:07:56;2.38;;;1.80;;
24159;SDS011;62385;41.594;23.808;2023-10-13T09:10:33;3.50;;;2.05;;
24159;SDS011;62385;41.594;23.808;2023-10-13T09:12:58;3.67;;;2.10;;
24159;SDS011;62385;41.594;23.808;2023-10-13T09:15:28;2.97;;;2.00;;
24159;SDS011;62385;41.594;23.808;2023-10-13T09:18:22;3.92;;;1.80;;
24159;SDS011;62385;41.594;23.808;2023-10-13T09:21:03;4.18;;;2.20;;
24159;SDS011;62385;41.594;23.808;2023-10-13T09:23:48;3.53;;;2.30;;
24159;SDS011;62385;41.594;23.808;2023-10-13T09:26:14;3.50;;;2.65;;
24159;SDS011;62385;41.594;23.808;2023-10-13T09:28:43;10.25;;;3.47;;
24159;SDS011;62385;41.594;23.808;2023-10-13T09:31:09;2.80;;;1.70;;
24159;SDS011;62385;41.594;23.808;2023-10-13T09:33:36;4.45;;;1.80;;
24159;SDS011;62385;41.594;23.808;2023-10-13T09:38:33;4.07;;;1.85;;
24159;SDS011;62385;41.594;23.808;2023-10-13T09:41:04;3.78;;;1.80;;
24159;SDS011;62385;41.594;23.808;2023-10-13T09:43:49;2.03;;;1.15;;
24159;SDS011;62385;41.594;23.808;2023-10-13T09:46:20;2.25;;;1.42;;
24159;SDS011;62385;41.594;23.808;2023-10-13T09:48:49;0.82;;;0.82;;
24159;SDS011;62385;41.594;23.808;2023-10-13T09:51:30;0.80;;;0.70;;
24159;SDS011;62385;41.594;23.808;2023-10-13T09:54:03;1.52;;;0.73;;
24159;SDS011;62385;41.594;23.808;2023-10-13T09:56:37;2.65;;;1.33;;
24159;SDS011;62385;41.594;23.808;2023-10-13T09:59:39;2.67;;;2.42;;
24159;SDS011;62385;41.594;23.808;2023-10-13T10:02:18;2.05;;;1.20;;
24159;SDS011;62385;41.594;23.808;2023-10-13T10:04:51;3.35;;;1.48;;
24159;SDS011;62385;41.594;23.808;2023-10-13T10:07:27;4.72;;;1.35;;
24159;SDS011;62385;41.594;23.808;2023-10-13T10:10:00;1.55;;;1.27;;
24159;SDS011;62385;41.594;23.808;2023-10-13T10:12:32;1.42;;;1.30;;
24159;SDS011;62385;41.594;23.808;2023-10-13T10:18:00;9.88;;;4.13;;
24159;SDS011;62385;41.594;23.808;2023-10-13T10:20:30;7.45;;;3.08;;
24159;SDS011;62385;41.594;23.808;2023-10-13T10:23:24;4.40;;;2.53;;
24159;SDS011;62385;41.594;23.808;2023-10-13T10:25:52;6.97;;;2.22;;
24159;SDS011;62385;41.594;23.808;2023-10-13T10:28:35;1.17;;;0.98;;
24159;SDS011;62385;41.594;23.808;2023-10-13T10:31:07;2.55;;;1.75;;
24159;SDS011;62385;41.594;23.808;2023-10-13T10:33:42;10.73;;;1.45;;
24159;SDS011;62385;41.594;23.808;2023-10-13T10:36:09;1.15;;;0.95;;
24159;SDS011;62385;41.594;23.808;2023-10-13T10:38:54;2.10;;;1.30;;
24159;SDS011;62385;41.594;23.808;2023-10-13T10:41:27;6.13;;;0.95;;
24159;SDS011;62385;41.594;23.808;2023-10-13T10:44:15;1.42;;;1.08;;
24159;SDS011;62385;41.594;23.808;2023-10-13T10:46:41;2.95;;;1.13;;
24159;SDS011;62385;41.594;23.808;2023-10-13T10:49:18;2.83;;;1.33;;
24159;SDS011;62385;41.594;23.808;2023-10-13T10:51:53;0.93;;;0.63;;
24159;SDS011;62385;41.594;23.808;2023-10-13T10:54:25;1.35;;;1.10;;
24159;SDS011;62385;41.594;23.808;2023-10-13T10:57:00;9.32;;;1.10;;
24159;SDS011;62385;41.594;23.808;2023-10-13T10:59:47;3.80;;;1.55;;
24159;SDS011;62385;41.594;23.808;2023-10-13T11:02:32;2.65;;;1.10;;
24159;SDS011;62385;41.594;23.808;2023-10-13T11:04:58;1.63;;;1.05;;
24159;SDS011;62385;41.594;23.808;2023-10-13T11:07:25;2.85;;;1.05;;
24159;SDS011;62385;41.594;23.808;2023-10-13T11:09:53;3.63;;;1.02;;
24159;SDS011;62385;41.594;23.808;2023-10-13T11:12:23;1.70;;;1.40;;
24159;SDS011;62385;41.594;23.808;2023-10-13T11:15:05;1.67;;;1.08;;
24159;SDS011;62385;41.594;23.808;2023-10-13T11:17:50;2.88;;;1.35;;
24159;SDS011;62385;41.594;23.808;2023-10-13T11:20:20;1.10;;;0.82;;
24159;SDS011;62385;41.594;23.808;2023-10-13T11:23:00;3.38;;;1.35;;
24159;SDS011;62385;41.594;23.808;2023-10-13T11:25:29;4.55;;;1.05;;
24159;SDS011;62385;41.594;23.808;2023-10-13T11:28:16;2.63;;;1.27;;
24159;SDS011;62385;41.594;23.808;2023-10-13T11:30:44;4.65;;;2.22;;
24159;SDS011;62385;41.594;23.808;2023-10-13T11:33:16;1.98;;;1.33;;
24159;SDS011;62385;41.594;23.808;2023-10-13T11:35:53;3.40;;;1.17;;
24159;SDS011;62385;41.594;23.808;2023-10-13T11:38:20;0.98;;;0.85;;
24159;SDS011;62385;41.594;23.808;2023-10-13T11:41:00;2.53;;;1.10;;
24159;SDS011;62385;41.594;23.808;2023-10-13T11:43:32;2.63;;;1.48;;
24159;SDS011;62385;41.594;23.808;2023-10-13T11:46:27;1.40;;;0.98;;
24159;SDS011;62385;41.594;23.808;2023-10-13T11:49:02;2.38;;;0.90;;
24159;SDS011;62385;41.594;23.808;2023-10-13T11:51:41;1.70;;;0.82;;
24159;SDS011;62385;41.594;23.808;2023-10-13T11:54:19;1.27;;;0.90;;
24159;SDS011;62385;41.594;23.808;2023-10-13T11:56:48;1.92;;;0.82;;
24159;SDS011;62385;41.594;23.808;2023-10-13T11:59:14;2.00;;;1.48;;
24159;SDS011;62385;41.594;23.808;2023-10-13T12:01:47;3.95;;;1.08;;
24159;SDS011;62385;41.594;23.808;2023-10-13T12:04:31;1.13;;;0.98;;
24159;SDS011;62385;41.594;23.808;2023-10-13T12:07:00;1.05;;;0.75;;
24159;SDS011;62385;41.594;23.808;2023-10-13T12:09:45;1.02;;;0.57;;
24159;SDS011;62385;41.594;23.808;2023-10-13T12:14:47;0.88;;;0.70;;
24159;SDS011;62385;41.594;23.808;2023-10-13T12:17:22;0.60;;;0.40;;
24159;SDS011;62385;41.594;23.808;2023-10-13T12:20:00;0.68;;;0.50;;
24159;SDS011;62385;41.594;23.808;2023-10-13T12:22:26;1.05;;;0.45;;
24159;SDS011;62385;41.594;23.808;2023-10-13T12:25:00;1.15;;;0.80;;
24159;SDS011;62385;41.594;23.808;2023-10-13T12:27:30;1.70;;;0.50;;
24159;SDS011;62385;41.594;23.808;2023-10-13T12:30:14;0.60;;;0.40;;
24159;SDS011;62385;41.594;23.808;2023-10-13T12:32:42;0.65;;;0.40;;
24159;SDS011;62385;41.594;23.808;2023-10-13T12:35:19;2.88;;;1.33;;
24159;SDS011;62385;41.594;23.808;2023-10-13T12:38:03;2.47;;;0.98;;
24159;SDS011;62385;41.594;23.808;2023-10-13T12:40:41;0.52;;;0.47;;
24159;SDS011;62385;41.594;23.808;2023-10-13T12:43:43;0.50;;;0.30;;
24159;SDS011;62385;41.594;23.808;2023-10-13T12:46:47;1.00;;;0.70;;
24159;SDS011;62385;41.594;23.808;2023-10-13T12:49:34;5.28;;;0.70;;
24159;SDS011;62385;41.594;23.808;2023-10-13T12:52:17;1.25;;;0.57;;
24159;SDS011;62385;41.594;23.808;2023-10-13T12:54:46;1.05;;;0.63;;
24159;SDS011;62385;41.594;23.808;2023-10-13T12:57:15;0.50;;;0.30;;
24159;SDS011;62385;41.594;23.808;2023-10-13T12:59:42;1.23;;;0.80;;
24159;SDS011;62385;41.594;23.808;2023-10-13T13:02:08;1.27;;;0.85;;
24159;SDS011;62385;41.594;23.808;2023-10-13T13:04:40;2.10;;;0.80;;
24159;SDS011;62385;41.594;23.808;2023-10-13T13:07:16;0.80;;;0.70;;
24159;SDS011;62385;41.594;23.808;2023-10-13T13:09:42;2.38;;;0.80;;
24159;SDS011;62385;41.594;23.808;2023-10-13T13:12:08;2.10;;;0.50;;
24159;SDS011;62385;41.594;23.808;2023-10-13T13:14:37;1.25;;;0.63;;
24159;SDS011;62385;41.594;23.808;2023-10-13T13:17:05;0.30;;;0.30;;
24159;SDS011;62385;41.594;23.808;2023-10-13T13:19:34;0.57;;;0.40;;
24159;SDS011;62385;41.594;23.808;2023-10-13T13:22:02;0.30;;;0.25;;
24159;SDS011;62385;41.594;23.808;2023-10-13T13:24:29;1.10;;;0.80;;
24159;SDS011;62385;41.594;23.808;2023-10-13T13:26:55;0.40;;;0.30;;
24159;SDS011;62385;41.594;23.808;2023-10-13T13:29:21;0.40;;;0.35;;
24159;SDS011;62385;41.594;23.808;2023-10-13T13:31:47;0.55;;;0.50;;
24159;SDS011;62385;41.594;23.808;2023-10-13T13:34:12;1.15;;;0.73;;
24159;SDS011;62385;41.594;23.808;2023-10-13T13:36:38;0.80;;;0.60;;
24159;SDS011;62385;41.594;23.808;2023-10-13T13:39:10;1.00;;;0.50;;
24159;SDS011;62385;41.594;23.808;2023-10-13T13:41:36;0.98;;;0.65;;
24159;SDS011;62385;41.594;23.808;2023-10-13T13:44:01;1.00;;;0.70;;
24159;SDS011;62385;41.594;23.808;2023-10-13T13:46:38;1.50;;;0.82;;
24159;SDS011;62385;41.594;23.808;2023-10-13T13:49:06;2.50;;;0.70;;
24159;SDS011;62385;41.594;23.808;2023-10-13T13:51:33;0.55;;;0.50;;
24159;SDS011;62385;41.594;23.808;2023-10-13T13:54:03;0.70;;;0.57;;
24159;SDS011;62385;41.594;23.808;2023-10-13T13:56:31;1.65;;;0.95;;
24159;SDS011;62385;41.594;23.808;2023-10-13T13:59:04;1.00;;;0.70;;
24159;SDS011;62385;41.594;23.808;2023-10-13T14:01:34;0.85;;;0.73;;
24159;SDS011;62385;41.594;23.808;2023-10-13T14:04:02;0.77;;;0.60;;
24159;SDS011;62385;41.594;23.808;2023-10-13T14:06:28;4.55;;;1.25;;
24159;SDS011;62385;41.594;23.808;2023-10-13T14:08:55;0.73;;;0.60;;
24159;SDS011;62385;41.594;23.808;2023-10-13T14:11:22;0.57;;;0.47;;
24159;SDS011;62385;41.594;23.808;2023-10-13T14:13:49;1.10;;;0.50;;
24159;SDS011;62385;41.594;23.808;2023-10-13T14:16:16;1.75;;;0.55;;
24159;SDS011;62385;41.594;23.808;2023-10-13T14:18:49;1.30;;;0.50;;
24159;SDS011;62385;41.594;23.808;2023-10-13T14:21:16;1.75;;;0.57;;
24159;SDS011;62385;41.594;23.808;2023-10-13T14:23:45;4.55;;;0.50;;
24159;SDS011;62385;41.594;23.808;2023-10-13T14:26:13;1.20;;;0.77;;
24159;SDS011;62385;41.594;23.808;2023-10-13T14:28:39;1.85;;;1.17;;
24159;SDS011;62385;41.594;23.808;2023-10-13T14:31:20;0.63;;;0.47;;
24159;SDS011;62385;41.594;23.808;2023-10-13T14:33:46;1.00;;;0.75;;
24159;SDS011;62385;41.594;23.808;2023-10-13T14:36:12;0.98;;;0.75;;
24159;SDS011;62385;41.594;23.808;2023-10-13T14:38:38;1.10;;;0.68;;
24159;SDS011;62385;41.594;23.808;2023-10-13T14:41:05;1.42;;;0.80;;
24159;SDS011;62385;41.594;23.808;2023-10-13T14:43:31;2.17;;;0.88;;
24159;SDS011;62385;41.594;23.808;2023-10-13T14:45:56;2.05;;;1.15;;
24159;SDS011;62385;41.594;23.808;2023-10-13T14:48:23;0.70;;;0.60;;
24159;SDS011;62385;41.594;23.808;2023-10-13T14:50:50;1.73;;;1.15;;
24159;SDS011;62385;41.594;23.808;2023-10-13T14:53:15;1.83;;;0.70;;
24159;SDS011;62385;41.594;23.808;2023-10-13T14:55:44;0.63;;;0.63;;
24159;SDS011;62385;41.594;23.808;2023-10-13T14:58:11;8.02;;;0.90;;
24159;SDS011;62385;41.594;23.808;2023-10-13T15:00:44;1.80;;;1.27;;
24159;SDS011;62385;41.594;23.808;2023-10-13T15:03:10;1.23;;;1.10;;
24159;SDS011;62385;41.594;23.808;2023-10-13T15:05:55;1.15;;;1.00;;
24159;SDS011;62385;41.594;23.808;2023-10-13T15:08:21;6.57;;;1.20;;
24159;SDS011;62385;41.594;23.808;2023-10-13T15:10:46;6.50;;;1.38;;
24159;SDS011;62385;41.594;23.808;2023-10-13T15:13:12;2.03;;;0.85;;
24159;SDS011;62385;41.594;23.808;2023-10-13T15:15:37;1.67;;;0.95;;
24159;SDS011;62385;41.594;23.808;2023-10-13T15:18:04;2.28;;;1.42;;
24159;SDS011;62385;41.594;23.808;2023-10-13T15:20:30;3.25;;;1.45;;
24159;SDS011;62385;41.594;23.808;2023-10-13T15:22:55;2.78;;;1.30;;